createdAt,value
2022-11-03T00:01:03.095Z,4.93
2022-11-03T00:04:14.153Z,4.91
2022-11-03T00:07:23.218Z,4.85
2022-11-03T00:10:25.878Z,4.78
2022-11-03T00:13:28.552Z,4.71
2022-11-03T00:16:31.665Z,4.67
2022-11-03T00:19:34.205Z,4.63
2022-11-03T00:22:36.804Z,4.56
2022-11-03T00:25:39.499Z,4.55
2022-11-03T00:28:43.829Z,4.51
2022-11-03T00:31:46.588Z,4.51
2022-11-03T00:34:49.196Z,4.46
2022-11-03T00:37:54.621Z,4.42
2022-11-03T00:41:01.742Z,4.38
2022-11-03T00:44:04.624Z,4.35
2022-11-03T00:47:10.345Z,4.29
2022-11-03T00:50:13.134Z,4.24
2022-11-03T00:53:15.714Z,4.17
2022-11-03T00:56:23.855Z,4.13
2022-11-03T00:59:26.417Z,4.11
2022-11-03T01:02:32.421Z,4.06
2022-11-03T01:05:59.793Z,3.94
2022-11-03T01:09:03.239Z,3.92
2022-11-03T01:12:10.624Z,3.92
2022-11-03T01:15:16.217Z,3.93
2022-11-03T01:18:18.806Z,3.92
2022-11-03T01:21:21.439Z,3.93
2022-11-03T01:24:24.067Z,3.90
2022-11-03T01:27:26.713Z,3.88
2022-11-03T01:30:30.451Z,3.83
2022-11-03T01:33:33.360Z,3.78
2022-11-03T01:36:36.003Z,3.79
2022-11-03T01:39:38.918Z,3.75
2022-11-03T01:42:41.490Z,3.72
2022-11-03T01:45:44.644Z,3.72
2022-11-03T01:48:50.583Z,3.70
2022-11-03T01:52:05.608Z,3.69
2022-11-03T01:55:12.644Z,3.67
2022-11-03T01:58:22.216Z,3.64
2022-11-03T02:01:25.003Z,3.64
2022-11-03T02:04:30.840Z,3.61
2022-11-03T02:07:37.725Z,3.64
2022-11-03T02:10:40.640Z,3.61
2022-11-03T02:13:43.240Z,3.60
2022-11-03T02:16:55.568Z,3.61
2022-11-03T02:20:11.436Z,3.66
2022-11-03T02:23:42.198Z,3.68
2022-11-03T02:26:48.393Z,3.71
2022-11-03T02:29:51.085Z,3.90
2022-11-03T02:32:57.823Z,4.12
2022-11-03T02:36:15.461Z,4.36
2022-11-03T02:39:19.800Z,4.72
2022-11-03T02:42:23.985Z,4.95
2022-11-03T02:45:27.152Z,5.42
2022-11-03T02:48:33.151Z,4.80
2022-11-03T02:51:36.006Z,4.31
2022-11-03T02:54:42.358Z,4.18
2022-11-03T02:57:53.780Z,4.12
2022-11-03T03:01:06.861Z,4.07
2022-11-03T03:04:18.550Z,4.00
2022-11-03T03:07:27.056Z,4.00
2022-11-03T03:10:39.553Z,3.91
2022-11-03T03:13:45.491Z,3.85
2022-11-03T03:16:53.421Z,3.82
2022-11-03T03:20:05.750Z,3.71
2022-11-03T03:23:11.737Z,3.63
2022-11-03T03:26:23.355Z,3.64
2022-11-03T03:29:29.898Z,3.57
2022-11-03T03:32:39.868Z,3.56
2022-11-03T03:35:44.460Z,3.55
2022-11-03T03:38:55.658Z,3.53
2022-11-03T03:41:59.010Z,3.44
2022-11-03T03:45:04.605Z,3.48
2022-11-03T03:48:07.651Z,3.44
2022-11-03T03:51:11.182Z,3.41
2022-11-03T03:54:13.751Z,3.41
2022-11-03T03:57:19.290Z,3.40
2022-11-03T04:00:21.914Z,3.38
2022-11-03T04:03:26.421Z,3.37
2022-11-03T04:06:29.084Z,3.37
2022-11-03T04:09:34.530Z,3.43
2022-11-03T04:12:55.517Z,3.31
2022-11-03T04:16:18.666Z,3.29
2022-11-03T04:19:39.824Z,3.19
2022-11-03T04:22:42.668Z,3.15
2022-11-03T04:25:51.028Z,3.14
2022-11-03T04:28:57.812Z,3.22
2022-11-03T04:32:13.406Z,3.28
2022-11-03T04:35:21.003Z,3.37
2022-11-03T04:38:26.584Z,3.44
2022-11-03T04:41:32.576Z,3.50
2022-11-03T04:44:35.674Z,3.56
2022-11-03T04:47:38.330Z,3.61
2022-11-03T04:50:46.583Z,3.62
2022-11-03T04:53:59.670Z,3.66
2022-11-03T04:57:14.543Z,3.69
2022-11-03T05:00:18.999Z,3.73
2022-11-03T05:03:32.587Z,3.76
2022-11-03T05:06:52.721Z,3.77
2022-11-03T05:09:58.546Z,3.79
2022-11-03T05:13:01.296Z,3.81
2022-11-03T05:16:05.488Z,3.79
2022-11-03T05:19:34.109Z,3.83
2022-11-03T05:22:37.531Z,3.84
2022-11-03T05:25:45.912Z,3.81
2022-11-03T05:28:56.375Z,3.81
2022-11-03T05:31:59.254Z,3.84
2022-11-03T05:35:02.468Z,3.88
2022-11-03T05:38:11.346Z,3.93
2022-11-03T05:41:23.946Z,3.99
2022-11-03T05:44:39.876Z,4.00
2022-11-03T05:47:44.677Z,4.05
2022-11-03T05:50:47.357Z,4.10
2022-11-03T05:53:54.533Z,4.12
2022-11-03T05:56:57.326Z,4.17
2022-11-03T06:00:07.830Z,4.16
2022-11-03T06:03:16.423Z,4.19
2022-11-03T06:06:36.250Z,4.22
2022-11-03T06:09:39.045Z,4.15
2022-11-03T06:12:44.413Z,4.20
2022-11-03T06:15:48.490Z,4.21
2022-11-03T06:18:51.538Z,4.24
2022-11-03T06:21:56.921Z,4.25
2022-11-03T06:25:33.665Z,4.30
2022-11-03T06:28:39.564Z,4.35
2022-11-03T06:31:44.448Z,4.41
2022-11-03T06:34:52.668Z,4.53
2022-11-03T06:37:57.393Z,4.66
2022-11-03T06:41:00.092Z,4.75
2022-11-03T06:44:07.661Z,4.89
2022-11-03T06:47:36.558Z,5.09
2022-11-03T06:50:44.982Z,5.14
2022-11-03T06:53:48.751Z,5.39
2022-11-03T06:56:51.378Z,5.51
2022-11-03T07:00:06.683Z,5.59
2022-11-03T07:03:33.699Z,5.76
2022-11-03T07:06:36.826Z,5.98
2022-11-03T07:09:39.443Z,6.31
2022-11-03T07:12:42.592Z,6.55
2022-11-03T07:15:46.091Z,6.87
2022-11-03T07:18:48.838Z,7.14
2022-11-03T07:21:59.951Z,7.40
2022-11-03T07:25:04.413Z,7.52
2022-11-03T07:28:09.858Z,7.67
2022-11-03T07:31:26.365Z,7.97
2022-11-03T07:34:33.567Z,8.32
2022-11-03T07:37:36.204Z,8.68
2022-11-03T07:40:39.218Z,9.02
2022-11-03T07:43:42.003Z,9.34
2022-11-03T07:46:44.656Z,9.68
2022-11-03T07:49:47.642Z,9.92
2022-11-03T07:52:50.373Z,10.03
2022-11-03T07:55:55.572Z,10.14
2022-11-03T07:59:13.740Z,10.27
2022-11-03T08:02:49.736Z,10.49
2022-11-03T08:05:52.540Z,10.65
2022-11-03T08:08:55.264Z,10.83
2022-11-03T08:11:57.940Z,10.99
2022-11-03T08:15:00.805Z,11.05
2022-11-03T08:18:03.490Z,11.08
2022-11-03T08:21:06.711Z,11.21
2022-11-03T08:24:09.402Z,11.33
2022-11-03T08:27:12.597Z,11.43
2022-11-03T08:30:15.580Z,11.47
2022-11-03T08:33:18.749Z,11.50
2022-11-03T08:36:24.566Z,11.59
2022-11-03T08:39:27.368Z,11.75
2022-11-03T08:42:30.096Z,11.93
2022-11-03T08:45:32.859Z,12.17
2022-11-03T08:48:38.456Z,12.43
2022-11-03T08:51:44.444Z,12.66
2022-11-03T08:54:47.797Z,12.88
2022-11-03T08:57:50.610Z,13.41
2022-11-03T09:00:59.528Z,13.81
2022-11-03T09:04:03.925Z,14.17
2022-11-03T09:07:06.652Z,14.47
2022-11-03T09:13:19.925Z,14.71
2022-11-03T09:16:25.411Z,14.70
2022-11-03T09:19:28.217Z,15.13
2022-11-03T09:22:30.974Z,15.10
2022-11-03T09:25:35.755Z,15.28
2022-11-03T09:28:43.387Z,15.67
2022-11-03T09:31:49.462Z,15.85
2022-11-03T09:34:55.035Z,16.18
2022-11-03T09:37:57.865Z,16.52
2022-11-03T09:41:00.909Z,16.63
2022-11-03T09:44:06.967Z,16.52
2022-11-03T09:47:28.475Z,16.94
2022-11-03T09:50:32.224Z,17.01
2022-11-03T09:53:35.012Z,16.97
2022-11-03T09:56:37.835Z,17.68
2022-11-03T09:59:42.711Z,17.52
2022-11-03T10:02:45.581Z,17.99
2022-11-03T10:05:48.681Z,17.69
2022-11-03T10:08:58.075Z,18.09
2022-11-03T10:12:05.979Z,17.74
2022-11-03T10:15:15.789Z,18.06
2022-11-03T10:18:19.261Z,17.92
2022-11-03T10:21:35.658Z,18.35
2022-11-03T10:24:38.440Z,17.90
2022-11-03T10:27:41.224Z,18.21
2022-11-03T10:31:11.901Z,17.90
2022-11-03T10:34:39.579Z,17.96
2022-11-03T10:37:42.327Z,18.95
2022-11-03T10:40:48.630Z,18.83
2022-11-03T10:44:27.154Z,18.50
2022-11-03T10:47:35.092Z,18.90
2022-11-03T10:50:43.688Z,20.03
2022-11-03T10:53:46.345Z,19.68
2022-11-03T10:56:49.746Z,19.71
2022-11-03T10:59:54.416Z,19.76
2022-11-03T11:03:00.072Z,19.28
2022-11-03T11:06:02.754Z,19.37
2022-11-03T11:09:06.286Z,20.08
2022-11-03T11:12:22.051Z,20.59
2022-11-03T11:15:44.774Z,20.72
2022-11-03T11:18:47.408Z,19.98
2022-11-03T11:22:22.085Z,20.17
2022-11-03T11:26:03.291Z,20.56
2022-11-03T11:29:09.081Z,21.66
2022-11-03T11:32:39.681Z,21.45
2022-11-03T11:36:02.765Z,21.28
2022-11-03T11:39:28.446Z,21.51
2022-11-03T11:42:33.639Z,21.69
2022-11-03T11:46:16.936Z,20.93
2022-11-03T11:49:20.608Z,21.24
2022-11-03T11:52:23.195Z,22.17
2022-11-03T11:55:51.530Z,20.69
2022-11-03T11:58:57.614Z,20.63
2022-11-03T12:02:00.436Z,20.62
2022-11-03T12:05:04.060Z,20.45
2022-11-03T12:08:20.186Z,20.49
2022-11-03T12:11:45.720Z,20.34
2022-11-03T12:14:49.801Z,21.42
2022-11-03T12:17:52.532Z,21.03
2022-11-03T12:20:55.391Z,20.05
2022-11-03T12:23:58.731Z,19.18
2022-11-03T12:27:02.214Z,19.32
2022-11-03T12:30:12.241Z,17.87
2022-11-03T12:33:15.187Z,17.81
2022-11-03T12:36:20.820Z,17.23
2022-11-03T12:39:23.476Z,17.33
2022-11-03T12:42:26.290Z,17.52
2022-11-03T12:45:28.968Z,17.86
2022-11-03T12:48:32.053Z,17.49
2022-11-03T12:51:34.823Z,17.61
2022-11-03T12:54:37.494Z,16.96
2022-11-03T12:57:40.215Z,16.52
2022-11-03T13:00:46.448Z,16.20
2022-11-03T13:03:54.781Z,16.19
2022-11-03T13:06:57.627Z,16.09
2022-11-03T13:10:00.387Z,16.00
2022-11-03T13:13:03.051Z,16.02
2022-11-03T13:16:05.904Z,15.78
2022-11-03T13:19:10.978Z,15.91
2022-11-03T13:22:13.631Z,15.90
2022-11-03T13:25:16.392Z,15.81
2022-11-03T13:28:19.271Z,15.40
2022-11-03T13:31:22.121Z,15.34
2022-11-03T13:34:24.777Z,15.24
2022-11-03T13:37:27.507Z,15.65
2022-11-03T13:43:53.150Z,16.45
2022-11-03T13:46:59.526Z,17.04
2022-11-03T13:50:18.235Z,17.22
2022-11-03T14:00:09.311Z,16.73
2022-11-03T14:06:34.691Z,15.66
2022-11-03T14:12:45.017Z,15.63
2022-11-03T14:15:47.817Z,15.91
2022-11-03T14:18:51.473Z,16.01
2022-11-03T14:21:54.126Z,16.06
2022-11-03T14:24:56.819Z,15.92
2022-11-03T14:27:59.501Z,15.90
2022-11-03T14:31:04.084Z,15.84
2022-11-03T14:34:06.753Z,14.60
2022-11-03T14:37:11.183Z,14.60
2022-11-03T14:40:35.553Z,14.10
2022-11-03T14:43:38.292Z,13.60
2022-11-03T14:46:40.951Z,13.45
2022-11-03T14:49:43.816Z,13.05
2022-11-03T14:52:47.491Z,12.99
2022-11-03T14:55:50.192Z,12.77
2022-11-03T14:58:53.156Z,12.78
2022-11-03T15:02:00.035Z,12.61
2022-11-03T15:05:02.998Z,12.47
2022-11-03T15:08:06.237Z,12.31
2022-11-03T15:11:10.318Z,12.21
2022-11-03T15:14:13.415Z,12.10
2022-11-03T15:17:16.513Z,11.93
2022-11-03T15:20:19.218Z,11.76
2022-11-03T15:26:48.021Z,11.40
2022-11-03T15:29:50.754Z,11.24
2022-11-03T15:32:53.566Z,11.16
2022-11-03T15:35:57.639Z,11.02
2022-11-03T15:39:00.809Z,10.99
2022-11-03T15:42:03.610Z,10.96
2022-11-03T15:45:08.409Z,10.96
2022-11-03T15:48:11.389Z,11.00
2022-11-03T15:51:15.513Z,10.98
2022-11-03T15:54:18.373Z,10.98
2022-11-03T15:57:21.140Z,10.94
2022-11-03T16:00:26.832Z,10.91
2022-11-03T16:03:30.721Z,10.88
2022-11-03T16:07:06.268Z,10.90
2022-11-03T16:09:59.652Z,10.87
2022-11-03T16:13:02.275Z,10.81
2022-11-03T16:16:08.084Z,10.80
2022-11-03T16:19:10.773Z,10.74
2022-11-03T16:22:13.752Z,10.72
2022-11-03T16:25:19.184Z,10.69
2022-11-03T16:28:23.701Z,10.70
2022-11-03T16:31:29.404Z,10.66
2022-11-03T16:34:35.564Z,10.64
2022-11-03T16:37:38.629Z,10.62
2022-11-03T16:40:42.266Z,10.61
2022-11-03T16:43:47.160Z,10.59
2022-11-03T16:46:51.505Z,10.53
2022-11-03T16:49:54.340Z,10.49
2022-11-03T16:52:57.600Z,10.46
2022-11-03T16:56:00.509Z,10.43
2022-11-03T16:59:03.213Z,10.37
2022-11-03T17:02:06.213Z,10.36
2022-11-03T17:05:09.760Z,10.34
2022-11-03T17:08:38.863Z,10.35
2022-11-03T17:11:37.589Z,10.33
2022-11-03T17:14:40.231Z,10.32
2022-11-03T17:17:43.524Z,10.32
2022-11-03T17:20:49.603Z,10.33
2022-11-03T17:23:52.493Z,10.34
2022-11-03T17:26:58.826Z,10.36
2022-11-03T17:30:05.878Z,10.35
2022-11-03T17:33:13.579Z,10.37
2022-11-03T17:36:19.188Z,10.37
2022-11-03T17:39:28.830Z,10.38
2022-11-03T17:42:38.359Z,10.38
2022-11-03T17:45:41.128Z,10.39
2022-11-03T17:48:44.375Z,10.37
2022-11-03T17:51:47.236Z,10.40
2022-11-03T17:54:50.169Z,10.37
2022-11-03T17:57:54.490Z,10.34
2022-11-03T18:00:58.458Z,10.35
2022-11-03T18:04:02.961Z,10.31
2022-11-03T18:07:23.877Z,10.31
2022-11-03T18:10:32.598Z,10.28
2022-11-03T18:13:35.654Z,10.24
2022-11-03T18:16:41.918Z,10.22
2022-11-03T18:19:44.886Z,10.20
2022-11-03T18:22:48.139Z,10.20
2022-11-03T18:25:51.366Z,10.18
2022-11-03T18:28:54.644Z,10.15
2022-11-03T18:31:58.200Z,10.12
2022-11-03T18:35:01.287Z,10.10
2022-11-03T18:38:08.183Z,10.09
2022-11-03T18:41:34.536Z,10.06
2022-11-03T18:44:37.526Z,10.08
2022-11-03T18:47:40.990Z,10.09
2022-11-03T18:50:44.254Z,10.10
2022-11-03T18:53:47.702Z,10.12
2022-11-03T18:56:53.058Z,10.13
2022-11-03T18:59:56.099Z,10.15
2022-11-03T19:02:59.277Z,10.15
2022-11-03T19:06:04.245Z,10.13
2022-11-03T19:09:13.042Z,10.10
2022-11-03T19:12:16.724Z,10.01
2022-11-03T19:15:22.599Z,9.98
2022-11-03T19:18:27.278Z,9.94
2022-11-03T19:21:30.411Z,9.92
2022-11-03T19:24:33.410Z,9.88
2022-11-03T19:27:39.563Z,9.87
2022-11-03T19:30:42.662Z,9.87
2022-11-03T19:33:49.250Z,9.86
2022-11-03T19:36:53.357Z,9.86
2022-11-03T19:40:02.228Z,9.88
2022-11-03T19:43:11.213Z,9.90
2022-11-03T19:46:18.382Z,9.91
2022-11-03T19:49:21.383Z,9.90
2022-11-03T19:52:26.867Z,9.91
2022-11-03T19:55:32.850Z,9.93
2022-11-03T19:58:36.034Z,9.93
2022-11-03T20:01:42.233Z,9.93
2022-11-03T20:04:47.457Z,9.93
2022-11-03T20:07:53.577Z,9.94
2022-11-03T20:10:57.163Z,9.97
2022-11-03T20:14:00.097Z,9.97
2022-11-03T20:17:17.498Z,9.97
2022-11-03T20:20:23.355Z,9.97
2022-11-03T20:23:28.365Z,9.98
2022-11-03T20:26:31.691Z,9.98
2022-11-03T20:29:34.998Z,10.00
2022-11-03T20:32:41.169Z,10.00
2022-11-03T20:35:44.841Z,10.02
2022-11-03T20:38:55.787Z,10.02
2022-11-03T20:41:58.839Z,10.03
2022-11-03T20:45:01.900Z,10.04
2022-11-03T20:48:11.875Z,10.03
2022-11-03T20:51:16.553Z,10.04
2022-11-03T20:54:21.221Z,10.05
2022-11-03T20:57:23.967Z,10.05
2022-11-03T21:00:28.395Z,10.06
2022-11-03T21:03:53.657Z,10.08
2022-11-03T21:06:54.098Z,10.09
2022-11-03T21:09:56.771Z,10.12
2022-11-03T21:12:59.521Z,10.13
2022-11-03T21:16:24.371Z,10.13
2022-11-03T21:19:48.962Z,10.15
2022-11-03T21:22:53.271Z,10.16
2022-11-03T21:25:57.361Z,10.19
2022-11-03T21:29:03.582Z,10.21
2022-11-03T21:32:07.856Z,10.25
2022-11-03T21:35:19.511Z,10.28
2022-11-03T21:38:22.397Z,10.30
2022-11-03T21:41:43.655Z,10.32
2022-11-03T21:44:46.271Z,10.34
2022-11-03T21:48:12.828Z,10.35
2022-11-03T21:51:18.968Z,10.36
2022-11-03T21:54:21.913Z,10.36
2022-11-03T21:57:27.755Z,10.38
2022-11-03T22:00:31.333Z,10.36
2022-11-03T22:03:34.369Z,10.40
2022-11-03T22:06:37.076Z,10.42
2022-11-03T22:09:39.736Z,10.42
2022-11-03T22:12:42.353Z,10.46
2022-11-03T22:16:03.578Z,10.48
2022-11-03T22:19:27.789Z,10.50
2022-11-03T22:22:52.137Z,10.48
2022-11-03T22:26:13.417Z,10.46
2022-11-03T22:29:34.516Z,10.48
2022-11-03T22:32:37.431Z,10.46
2022-11-03T22:35:58.526Z,10.45
2022-11-03T22:39:19.572Z,10.46
2022-11-03T22:42:40.812Z,10.45
2022-11-03T22:45:52.612Z,10.45
2022-11-03T22:48:55.556Z,10.44
2022-11-03T22:51:58.162Z,10.40
2022-11-03T22:55:04.166Z,10.36
2022-11-03T22:58:06.740Z,10.34
2022-11-03T23:01:15.272Z,10.29
2022-11-03T23:04:18.046Z,10.27
2022-11-03T23:07:29.933Z,10.24
2022-11-03T23:10:34.330Z,10.21
2022-11-03T23:13:37.194Z,10.19
2022-11-03T23:16:42.639Z,10.18
2022-11-03T23:20:04.450Z,10.17
2022-11-03T23:23:07.384Z,10.16
2022-11-03T23:26:10.196Z,10.15
2022-11-03T23:29:14.046Z,10.13
2022-11-03T23:32:16.896Z,10.09
2022-11-03T23:35:19.586Z,10.07
2022-11-03T23:38:22.290Z,10.05
2022-11-03T23:41:25.233Z,10.03
2022-11-03T23:44:48.049Z,10.03
2022-11-03T23:48:11.797Z,9.98
2022-11-03T23:51:19.321Z,9.98
2022-11-03T23:54:21.867Z,9.94
2022-11-03T23:57:43.065Z,9.91
